sensor_id;sensor_type;location;lat;lon;timestamp;P1;durP1;ratioP1;P2;durP2;ratioP2
7997;SDS011;4044;49.814;7.828;2023-05-07T00:00:19;3.10;;;2.90;;
7997;SDS011;4044;49.814;7.828;2023-05-07T00:02:45;3.27;;;3.00;;
7997;SDS011;4044;49.814;7.828;2023-05-07T00:05:11;3.20;;;3.00;;
7997;SDS011;4044;49.814;7.828;2023-05-07T00:07:37;3.03;;;2.80;;
7997;SDS011;4044;49.814;7.828;2023-05-07T00:10:03;5.60;;;3.10;;
7997;SDS011;4044;49.814;7.828;2023-05-07T00:12:29;3.70;;;2.80;;
7997;SDS011;4044;49.814;7.828;2023-05-07T00:14:58;2.63;;;2.33;;
7997;SDS011;4044;49.814;7.828;2023-05-07T00:17:25;5.57;;;2.90;;
7997;SDS011;4044;49.814;7.828;2023-05-07T00:19:51;3.20;;;2.90;;
7997;SDS011;4044;49.814;7.828;2023-05-07T00:22:16;3.17;;;2.93;;
7997;SDS011;4044;49.814;7.828;2023-05-07T00:24:42;3.30;;;3.00;;
7997;SDS011;4044;49.814;7.828;2023-05-07T00:27:07;3.80;;;3.07;;
7997;SDS011;4044;49.814;7.828;2023-05-07T00:29:33;3.20;;;3.00;;
7997;SDS011;4044;49.814;7.828;2023-05-07T00:31:58;3.13;;;2.83;;
7997;SDS011;4044;49.814;7.828;2023-05-07T00:34:24;3.43;;;3.13;;
7997;SDS011;4044;49.814;7.828;2023-05-07T00:36:50;4.70;;;3.10;;
7997;SDS011;4044;49.814;7.828;2023-05-07T00:39:15;3.33;;;2.90;;
7997;SDS011;4044;49.814;7.828;2023-05-07T00:41:41;4.57;;;2.90;;
7997;SDS011;4044;49.814;7.828;2023-05-07T00:44:06;4.97;;;3.17;;
7997;SDS011;4044;49.814;7.828;2023-05-07T00:46:32;3.67;;;3.37;;
7997;SDS011;4044;49.814;7.828;2023-05-07T00:48:57;3.47;;;3.00;;
7997;SDS011;4044;49.814;7.828;2023-05-07T00:51:25;4.73;;;3.40;;
7997;SDS011;4044;49.814;7.828;2023-05-07T00:53:54;3.23;;;2.90;;
7997;SDS011;4044;49.814;7.828;2023-05-07T00:56:20;3.57;;;3.20;;
7997;SDS011;4044;49.814;7.828;2023-05-07T00:58:47;3.80;;;3.20;;
7997;SDS011;4044;49.814;7.828;2023-05-07T01:01:13;3.73;;;3.43;;
7997;SDS011;4044;49.814;7.828;2023-05-07T01:03:40;3.33;;;3.03;;
7997;SDS011;4044;49.814;7.828;2023-05-07T01:06:06;3.97;;;3.57;;
7997;SDS011;4044;49.814;7.828;2023-05-07T01:08:33;5.40;;;3.80;;
7997;SDS011;4044;49.814;7.828;2023-05-07T01:11:00;3.87;;;3.57;;
7997;SDS011;4044;49.814;7.828;2023-05-07T01:13:26;3.87;;;3.40;;
7997;SDS011;4044;49.814;7.828;2023-05-07T01:15:52;4.57;;;3.60;;
7997;SDS011;4044;49.814;7.828;2023-05-07T01:18:18;3.80;;;3.37;;
7997;SDS011;4044;49.814;7.828;2023-05-07T01:20:43;4.87;;;3.50;;
7997;SDS011;4044;49.814;7.828;2023-05-07T01:23:10;5.60;;;3.57;;
7997;SDS011;4044;49.814;7.828;2023-05-07T01:25:36;3.47;;;3.17;;
7997;SDS011;4044;49.814;7.828;2023-05-07T01:28:02;4.57;;;3.80;;
7997;SDS011;4044;49.814;7.828;2023-05-07T01:30:28;8.57;;;3.77;;
7997;SDS011;4044;49.814;7.828;2023-05-07T01:32:58;4.90;;;3.90;;
7997;SDS011;4044;49.814;7.828;2023-05-07T01:35:32;3.43;;;3.13;;
7997;SDS011;4044;49.814;7.828;2023-05-07T01:38:03;4.63;;;3.57;;
7997;SDS011;4044;49.814;7.828;2023-05-07T01:40:30;6.63;;;3.83;;
7997;SDS011;4044;49.814;7.828;2023-05-07T01:42:56;5.13;;;3.83;;
7997;SDS011;4044;49.814;7.828;2023-05-07T01:45:22;3.83;;;3.53;;
7997;SDS011;4044;49.814;7.828;2023-05-07T01:47:49;6.17;;;4.30;;
7997;SDS011;4044;49.814;7.828;2023-05-07T01:50:14;4.53;;;4.10;;
7997;SDS011;4044;49.814;7.828;2023-05-07T01:52:42;4.33;;;3.93;;
7997;SDS011;4044;49.814;7.828;2023-05-07T01:55:07;5.93;;;3.30;;
7997;SDS011;4044;49.814;7.828;2023-05-07T01:57:33;3.60;;;3.30;;
7997;SDS011;4044;49.814;7.828;2023-05-07T01:59:59;4.03;;;3.60;;
7997;SDS011;4044;49.814;7.828;2023-05-07T02:02:24;3.80;;;3.50;;
7997;SDS011;4044;49.814;7.828;2023-05-07T02:04:50;3.87;;;3.20;;
7997;SDS011;4044;49.814;7.828;2023-05-07T02:07:15;3.70;;;3.40;;
7997;SDS011;4044;49.814;7.828;2023-05-07T02:09:41;5.20;;;4.20;;
7997;SDS011;4044;49.814;7.828;2023-05-07T02:12:06;4.47;;;4.07;;
7997;SDS011;4044;49.814;7.828;2023-05-07T02:14:32;4.73;;;4.33;;
7997;SDS011;4044;49.814;7.828;2023-05-07T02:16:57;5.00;;;4.00;;
7997;SDS011;4044;49.814;7.828;2023-05-07T02:19:23;4.60;;;4.17;;
7997;SDS011;4044;49.814;7.828;2023-05-07T02:21:48;4.50;;;4.20;;
7997;SDS011;4044;49.814;7.828;2023-05-07T02:24:14;4.40;;;4.00;;
7997;SDS011;4044;49.814;7.828;2023-05-07T02:26:40;4.17;;;3.77;;
7997;SDS011;4044;49.814;7.828;2023-05-07T02:29:06;4.63;;;3.97;;
7997;SDS011;4044;49.814;7.828;2023-05-07T02:31:31;4.23;;;3.70;;
7997;SDS011;4044;49.814;7.828;2023-05-07T02:33:58;8.43;;;4.30;;
7997;SDS011;4044;49.814;7.828;2023-05-07T02:36:24;4.30;;;3.90;;
7997;SDS011;4044;49.814;7.828;2023-05-07T02:38:50;5.37;;;3.93;;
7997;SDS011;4044;49.814;7.828;2023-05-07T02:41:15;3.70;;;3.40;;
7997;SDS011;4044;49.814;7.828;2023-05-07T02:43:41;4.00;;;3.60;;
7997;SDS011;4044;49.814;7.828;2023-05-07T02:46:07;3.97;;;3.67;;
7997;SDS011;4044;49.814;7.828;2023-05-07T02:48:33;5.20;;;4.10;;
7997;SDS011;4044;49.814;7.828;2023-05-07T02:50:59;4.77;;;4.20;;
7997;SDS011;4044;49.814;7.828;2023-05-07T02:53:25;3.90;;;3.50;;
7997;SDS011;4044;49.814;7.828;2023-05-07T02:55:55;4.93;;;3.70;;
7997;SDS011;4044;49.814;7.828;2023-05-07T02:58:21;4.67;;;3.30;;
7997;SDS011;4044;49.814;7.828;2023-05-07T03:00:47;4.40;;;3.27;;
7997;SDS011;4044;49.814;7.828;2023-05-07T03:03:13;4.70;;;3.60;;
7997;SDS011;4044;49.814;7.828;2023-05-07T03:05:38;4.50;;;3.50;;
7997;SDS011;4044;49.814;7.828;2023-05-07T03:08:04;4.57;;;3.80;;
7997;SDS011;4044;49.814;7.828;2023-05-07T03:10:30;3.83;;;3.53;;
7997;SDS011;4044;49.814;7.828;2023-05-07T03:12:55;3.40;;;3.20;;
7997;SDS011;4044;49.814;7.828;2023-05-07T03:15:21;3.73;;;3.43;;
7997;SDS011;4044;49.814;7.828;2023-05-07T03:17:47;4.00;;;3.60;;
7997;SDS011;4044;49.814;7.828;2023-05-07T03:20:13;5.13;;;3.60;;
7997;SDS011;4044;49.814;7.828;2023-05-07T03:22:38;3.93;;;3.63;;
7997;SDS011;4044;49.814;7.828;2023-05-07T03:25:04;3.87;;;3.47;;
7997;SDS011;4044;49.814;7.828;2023-05-07T03:27:30;3.90;;;3.60;;
7997;SDS011;4044;49.814;7.828;2023-05-07T03:29:56;3.87;;;3.40;;
7997;SDS011;4044;49.814;7.828;2023-05-07T03:32:21;4.40;;;3.60;;
7997;SDS011;4044;49.814;7.828;2023-05-07T03:34:47;4.40;;;4.00;;
7997;SDS011;4044;49.814;7.828;2023-05-07T03:37:12;4.60;;;3.50;;
7997;SDS011;4044;49.814;7.828;2023-05-07T03:39:38;4.73;;;3.40;;
7997;SDS011;4044;49.814;7.828;2023-05-07T03:42:03;4.07;;;3.17;;
7997;SDS011;4044;49.814;7.828;2023-05-07T03:44:29;5.60;;;3.57;;
7997;SDS011;4044;49.814;7.828;2023-05-07T03:46:54;5.23;;;4.00;;
7997;SDS011;4044;49.814;7.828;2023-05-07T03:49:20;4.23;;;3.83;;
7997;SDS011;4044;49.814;7.828;2023-05-07T03:51:46;4.47;;;4.10;;
7997;SDS011;4044;49.814;7.828;2023-05-07T03:54:11;4.37;;;3.97;;
7997;SDS011;4044;49.814;7.828;2023-05-07T03:56:37;4.77;;;4.37;;
7997;SDS011;4044;49.814;7.828;2023-05-07T03:59:02;5.03;;;4.27;;
7997;SDS011;4044;49.814;7.828;2023-05-07T04:01:28;5.07;;;4.57;;
7997;SDS011;4044;49.814;7.828;2023-05-07T04:03:53;4.93;;;4.43;;
7997;SDS011;4044;49.814;7.828;2023-05-07T04:06:19;5.43;;;4.83;;
7997;SDS011;4044;49.814;7.828;2023-05-07T04:08:44;6.10;;;4.47;;
7997;SDS011;4044;49.814;7.828;2023-05-07T04:11:10;7.47;;;5.20;;
7997;SDS011;4044;49.814;7.828;2023-05-07T04:13:35;6.77;;;4.73;;
7997;SDS011;4044;49.814;7.828;2023-05-07T04:16:02;4.33;;;3.93;;
7997;SDS011;4044;49.814;7.828;2023-05-07T04:18:28;4.80;;;4.40;;
7997;SDS011;4044;49.814;7.828;2023-05-07T04:20:54;4.63;;;4.17;;
7997;SDS011;4044;49.814;7.828;2023-05-07T04:23:20;5.03;;;4.43;;
7997;SDS011;4044;49.814;7.828;2023-05-07T04:25:45;4.27;;;3.97;;
7997;SDS011;4044;49.814;7.828;2023-05-07T04:28:11;4.67;;;4.20;;
7997;SDS011;4044;49.814;7.828;2023-05-07T04:30:37;5.23;;;4.37;;
7997;SDS011;4044;49.814;7.828;2023-05-07T04:33:03;5.33;;;4.50;;
7997;SDS011;4044;49.814;7.828;2023-05-07T04:35:29;4.47;;;4.17;;
7997;SDS011;4044;49.814;7.828;2023-05-07T04:37:54;5.50;;;5.00;;
7997;SDS011;4044;49.814;7.828;2023-05-07T04:40:20;4.27;;;3.93;;
7997;SDS011;4044;49.814;7.828;2023-05-07T04:42:45;8.93;;;5.00;;
7997;SDS011;4044;49.814;7.828;2023-05-07T04:45:11;6.83;;;4.33;;
7997;SDS011;4044;49.814;7.828;2023-05-07T04:47:37;4.73;;;4.03;;
7997;SDS011;4044;49.814;7.828;2023-05-07T04:50:04;5.70;;;4.50;;
7997;SDS011;4044;49.814;7.828;2023-05-07T04:52:30;5.60;;;5.10;;
7997;SDS011;4044;49.814;7.828;2023-05-07T04:54:56;4.73;;;4.30;;
7997;SDS011;4044;49.814;7.828;2023-05-07T04:57:24;5.60;;;5.00;;
7997;SDS011;4044;49.814;7.828;2023-05-07T04:59:49;4.90;;;4.43;;
7997;SDS011;4044;49.814;7.828;2023-05-07T05:02:15;7.10;;;5.13;;
7997;SDS011;4044;49.814;7.828;2023-05-07T05:04:40;5.17;;;4.67;;
7997;SDS011;4044;49.814;7.828;2023-05-07T05:07:06;5.40;;;4.90;;
7997;SDS011;4044;49.814;7.828;2023-05-07T05:09:32;5.53;;;5.03;;
7997;SDS011;4044;49.814;7.828;2023-05-07T05:11:57;5.43;;;5.03;;
7997;SDS011;4044;49.814;7.828;2023-05-07T05:14:24;5.53;;;4.97;;
7997;SDS011;4044;49.814;7.828;2023-05-07T05:16:49;7.37;;;5.60;;
7997;SDS011;4044;49.814;7.828;2023-05-07T05:19:15;6.13;;;4.70;;
7997;SDS011;4044;49.814;7.828;2023-05-07T05:21:41;5.80;;;5.20;;
7997;SDS011;4044;49.814;7.828;2023-05-07T05:24:07;5.63;;;5.13;;
7997;SDS011;4044;49.814;7.828;2023-05-07T05:26:32;6.97;;;5.03;;
7997;SDS011;4044;49.814;7.828;2023-05-07T05:28:58;7.00;;;5.27;;
7997;SDS011;4044;49.814;7.828;2023-05-07T05:31:23;5.57;;;5.07;;
7997;SDS011;4044;49.814;7.828;2023-05-07T05:33:49;5.33;;;4.90;;
7997;SDS011;4044;49.814;7.828;2023-05-07T05:36:15;4.93;;;4.53;;
7997;SDS011;4044;49.814;7.828;2023-05-07T05:38:40;5.07;;;4.67;;
7997;SDS011;4044;49.814;7.828;2023-05-07T05:41:06;4.43;;;4.07;;
7997;SDS011;4044;49.814;7.828;2023-05-07T05:43:31;5.03;;;4.43;;
7997;SDS011;4044;49.814;7.828;2023-05-07T05:45:57;5.17;;;4.77;;
7997;SDS011;4044;49.814;7.828;2023-05-07T05:48:22;4.67;;;4.13;;
7997;SDS011;4044;49.814;7.828;2023-05-07T05:50:48;5.37;;;4.13;;
7997;SDS011;4044;49.814;7.828;2023-05-07T05:53:14;4.37;;;4.07;;
7997;SDS011;4044;49.814;7.828;2023-05-07T05:55:40;7.17;;;4.00;;
7997;SDS011;4044;49.814;7.828;2023-05-07T05:58:07;4.40;;;4.10;;
7997;SDS011;4044;49.814;7.828;2023-05-07T06:00:33;4.00;;;3.80;;
7997;SDS011;4044;49.814;7.828;2023-05-07T06:02:59;4.10;;;3.70;;
7997;SDS011;4044;49.814;7.828;2023-05-07T06:05:24;4.20;;;3.90;;
7997;SDS011;4044;49.814;7.828;2023-05-07T06:07:50;4.10;;;3.50;;
7997;SDS011;4044;49.814;7.828;2023-05-07T06:10:15;3.90;;;3.50;;
7997;SDS011;4044;49.814;7.828;2023-05-07T06:12:41;4.70;;;3.50;;
7997;SDS011;4044;49.814;7.828;2023-05-07T06:15:06;3.70;;;3.40;;
7997;SDS011;4044;49.814;7.828;2023-05-07T06:17:32;4.77;;;3.30;;
7997;SDS011;4044;49.814;7.828;2023-05-07T06:19:58;5.82;;;3.53;;
7997;SDS011;4044;49.814;7.828;2023-05-07T06:22:24;3.40;;;3.20;;
7997;SDS011;4044;49.814;7.828;2023-05-07T06:24:49;3.87;;;3.23;;
7997;SDS011;4044;49.814;7.828;2023-05-07T06:27:15;3.67;;;3.33;;
7997;SDS011;4044;49.814;7.828;2023-05-07T06:29:41;3.58;;;3.30;;
7997;SDS011;4044;49.814;7.828;2023-05-07T06:32:07;3.92;;;3.50;;
7997;SDS011;4044;49.814;7.828;2023-05-07T06:34:33;3.97;;;3.30;;
7997;SDS011;4044;49.814;7.828;2023-05-07T06:36:59;3.67;;;3.25;;
7997;SDS011;4044;49.814;7.828;2023-05-07T06:39:24;3.20;;;3.00;;
7997;SDS011;4044;49.814;7.828;2023-05-07T06:41:50;3.63;;;3.33;;
7997;SDS011;4044;49.814;7.828;2023-05-07T06:44:15;7.20;;;3.30;;
7997;SDS011;4044;49.814;7.828;2023-05-07T06:46:41;2.95;;;2.75;;
7997;SDS011;4044;49.814;7.828;2023-05-07T06:49:06;3.65;;;3.20;;
7997;SDS011;4044;49.814;7.828;2023-05-07T06:51:32;4.15;;;3.20;;
7997;SDS011;4044;49.814;7.828;2023-05-07T06:53:58;3.63;;;2.90;;
7997;SDS011;4044;49.814;7.828;2023-05-07T06:56:23;3.40;;;3.10;;
7997;SDS011;4044;49.814;7.828;2023-05-07T06:58:49;4.07;;;3.67;;
7997;SDS011;4044;49.814;7.828;2023-05-07T07:01:15;3.55;;;3.00;;
7997;SDS011;4044;49.814;7.828;2023-05-07T07:03:41;4.25;;;3.05;;
7997;SDS011;4044;49.814;7.828;2023-05-07T07:06:06;3.05;;;2.85;;
7997;SDS011;4044;49.814;7.828;2023-05-07T07:08:32;3.00;;;2.80;;
7997;SDS011;4044;49.814;7.828;2023-05-07T07:10:58;3.00;;;2.80;;
7997;SDS011;4044;49.814;7.828;2023-05-07T07:13:23;2.95;;;2.70;;
7997;SDS011;4044;49.814;7.828;2023-05-07T07:15:49;3.38;;;2.95;;
7997;SDS011;4044;49.814;7.828;2023-05-07T07:18:14;3.22;;;2.92;;
7997;SDS011;4044;49.814;7.828;2023-05-07T07:20:40;3.13;;;2.88;;
7997;SDS011;4044;49.814;7.828;2023-05-07T07:23:05;3.47;;;3.17;;
7997;SDS011;4044;49.814;7.828;2023-05-07T07:25:31;3.08;;;2.88;;
7997;SDS011;4044;49.814;7.828;2023-05-07T07:27:57;2.97;;;2.78;;
7997;SDS011;4044;49.814;7.828;2023-05-07T07:30:22;2.80;;;2.50;;
7997;SDS011;4044;49.814;7.828;2023-05-07T07:32:48;3.03;;;2.83;;
7997;SDS011;4044;49.814;7.828;2023-05-07T07:35:13;4.25;;;3.13;;
7997;SDS011;4044;49.814;7.828;2023-05-07T07:37:39;3.08;;;2.88;;
7997;SDS011;4044;49.814;7.828;2023-05-07T07:40:05;3.00;;;2.80;;
7997;SDS011;4044;49.814;7.828;2023-05-07T07:42:31;3.63;;;2.95;;
7997;SDS011;4044;49.814;7.828;2023-05-07T07:44:56;3.38;;;3.08;;
7997;SDS011;4044;49.814;7.828;2023-05-07T07:47:22;3.20;;;3.00;;
7997;SDS011;4044;49.814;7.828;2023-05-07T07:49:48;3.20;;;2.90;;
7997;SDS011;4044;49.814;7.828;2023-05-07T07:52:13;2.80;;;2.60;;
7997;SDS011;4044;49.814;7.828;2023-05-07T07:54:39;3.50;;;2.90;;
7997;SDS011;4044;49.814;7.828;2023-05-07T07:57:04;4.05;;;3.10;;
7997;SDS011;4044;49.814;7.828;2023-05-07T07:59:30;3.15;;;2.90;;
7997;SDS011;4044;49.814;7.828;2023-05-07T08:01:55;3.13;;;2.85;;
7997;SDS011;4044;49.814;7.828;2023-05-07T08:04:21;3.20;;;2.90;;
7997;SDS011;4044;49.814;7.828;2023-05-07T08:06:47;3.22;;;3.00;;
7997;SDS011;4044;49.814;7.828;2023-05-07T08:09:13;3.25;;;2.50;;
7997;SDS011;4044;49.814;7.828;2023-05-07T08:11:38;3.10;;;2.80;;
7997;SDS011;4044;49.814;7.828;2023-05-07T08:14:04;3.67;;;2.70;;
7997;SDS011;4044;49.814;7.828;2023-05-07T08:16:30;3.25;;;2.75;;
7997;SDS011;4044;49.814;7.828;2023-05-07T08:18:55;2.80;;;2.60;;
7997;SDS011;4044;49.814;7.828;2023-05-07T08:21:21;3.08;;;2.50;;
7997;SDS011;4044;49.814;7.828;2023-05-07T08:23:48;3.17;;;2.85;;
7997;SDS011;4044;49.814;7.828;2023-05-07T08:26:13;3.22;;;2.85;;
7997;SDS011;4044;49.814;7.828;2023-05-07T08:28:39;3.42;;;2.72;;
7997;SDS011;4044;49.814;7.828;2023-05-07T08:31:05;3.05;;;2.67;;
7997;SDS011;4044;49.814;7.828;2023-05-07T08:33:30;3.10;;;2.90;;
7997;SDS011;4044;49.814;7.828;2023-05-07T08:35:56;3.00;;;2.80;;
7997;SDS011;4044;49.814;7.828;2023-05-07T08:38:21;3.70;;;2.92;;
7997;SDS011;4044;49.814;7.828;2023-05-07T08:40:47;3.78;;;3.30;;
7997;SDS011;4044;49.814;7.828;2023-05-07T08:43:13;3.38;;;3.08;;
7997;SDS011;4044;49.814;7.828;2023-05-07T08:45:39;3.45;;;3.25;;
7997;SDS011;4044;49.814;7.828;2023-05-07T08:48:08;3.28;;;2.97;;
7997;SDS011;4044;49.814;7.828;2023-05-07T08:50:39;3.50;;;3.20;;
7997;SDS011;4044;49.814;7.828;2023-05-07T08:53:04;3.45;;;2.97;;
7997;SDS011;4044;49.814;7.828;2023-05-07T08:55:30;3.17;;;2.97;;
7997;SDS011;4044;49.814;7.828;2023-05-07T08:57:56;3.40;;;3.10;;
7997;SDS011;4044;49.814;7.828;2023-05-07T09:00:22;3.38;;;2.92;;
7997;SDS011;4044;49.814;7.828;2023-05-07T09:02:47;3.30;;;3.00;;
7997;SDS011;4044;49.814;7.828;2023-05-07T09:05:13;4.72;;;3.83;;
7997;SDS011;4044;49.814;7.828;2023-05-07T09:07:39;3.30;;;3.10;;
7997;SDS011;4044;49.814;7.828;2023-05-07T09:10:05;3.75;;;3.00;;
7997;SDS011;4044;49.814;7.828;2023-05-07T09:12:31;3.70;;;3.40;;
7997;SDS011;4044;49.814;7.828;2023-05-07T09:14:58;3.03;;;2.83;;
7997;SDS011;4044;49.814;7.828;2023-05-07T09:17:24;3.50;;;3.25;;
7997;SDS011;4044;49.814;7.828;2023-05-07T09:19:49;3.60;;;3.40;;
7997;SDS011;4044;49.814;7.828;2023-05-07T09:22:15;4.05;;;3.20;;
7997;SDS011;4044;49.814;7.828;2023-05-07T09:24:41;3.60;;;3.22;;
7997;SDS011;4044;49.814;7.828;2023-05-07T09:27:15;3.97;;;3.20;;
7997;SDS011;4044;49.814;7.828;2023-05-07T09:29:42;7.47;;;3.55;;
7997;SDS011;4044;49.814;7.828;2023-05-07T09:32:08;3.30;;;3.10;;
7997;SDS011;4044;49.814;7.828;2023-05-07T09:34:34;3.38;;;3.08;;
7997;SDS011;4044;49.814;7.828;2023-05-07T09:37:01;3.67;;;3.20;;
7997;SDS011;4044;49.814;7.828;2023-05-07T09:39:47;3.67;;;3.38;;
7997;SDS011;4044;49.814;7.828;2023-05-07T09:42:14;3.45;;;3.15;;
7997;SDS011;4044;49.814;7.828;2023-05-07T09:44:40;3.47;;;3.03;;
7997;SDS011;4044;49.814;7.828;2023-05-07T09:47:08;4.28;;;3.70;;
7997;SDS011;4044;49.814;7.828;2023-05-07T09:49:35;3.15;;;2.95;;
7997;SDS011;4044;49.814;7.828;2023-05-07T09:52:02;5.00;;;3.90;;
7997;SDS011;4044;49.814;7.828;2023-05-07T09:54:31;3.00;;;2.80;;
7997;SDS011;4044;49.814;7.828;2023-05-07T09:56:59;3.33;;;3.10;;
7997;SDS011;4044;49.814;7.828;2023-05-07T09:59:29;3.33;;;3.03;;
7997;SDS011;4044;49.814;7.828;2023-05-07T10:01:59;3.40;;;3.10;;
7997;SDS011;4044;49.814;7.828;2023-05-07T10:04:26;3.65;;;3.45;;
7997;SDS011;4044;49.814;7.828;2023-05-07T10:06:52;4.30;;;3.42;;
7997;SDS011;4044;49.814;7.828;2023-05-07T10:09:18;3.33;;;3.13;;
7997;SDS011;4044;49.814;7.828;2023-05-07T10:11:44;3.17;;;2.97;;
7997;SDS011;4044;49.814;7.828;2023-05-07T10:14:11;2.92;;;2.72;;
7997;SDS011;4044;49.814;7.828;2023-05-07T10:16:37;2.70;;;2.60;;
7997;SDS011;4044;49.814;7.828;2023-05-07T10:19:03;3.30;;;3.10;;
7997;SDS011;4044;49.814;7.828;2023-05-07T10:21:29;3.30;;;3.10;;
7997;SDS011;4044;49.814;7.828;2023-05-07T10:24:03;3.83;;;3.42;;
7997;SDS011;4044;49.814;7.828;2023-05-07T10:26:42;3.78;;;3.00;;
7997;SDS011;4044;49.814;7.828;2023-05-07T10:29:15;3.30;;;3.08;;
7997;SDS011;4044;49.814;7.828;2023-05-07T10:31:55;3.28;;;3.00;;
7997;SDS011;4044;49.814;7.828;2023-05-07T10:34:53;5.93;;;3.25;;
7997;SDS011;4044;49.814;7.828;2023-05-07T10:37:21;3.45;;;3.20;;
7997;SDS011;4044;49.814;7.828;2023-05-07T10:39:48;3.15;;;3.00;;
7997;SDS011;4044;49.814;7.828;2023-05-07T10:42:14;3.42;;;3.13;;
7997;SDS011;4044;49.814;7.828;2023-05-07T10:44:40;3.65;;;3.45;;
7997;SDS011;4044;49.814;7.828;2023-05-07T10:47:06;3.83;;;3.40;;
7997;SDS011;4044;49.814;7.828;2023-05-07T10:49:34;3.60;;;3.30;;
7997;SDS011;4044;49.814;7.828;2023-05-07T10:52:11;3.65;;;3.35;;
7997;SDS011;4044;49.814;7.828;2023-05-07T10:54:39;3.20;;;2.97;;
7997;SDS011;4044;49.814;7.828;2023-05-07T11:00:40;3.20;;;3.08;;
7997;SDS011;4044;49.814;7.828;2023-05-07T11:05:29;3.22;;;3.03;;
7997;SDS011;4044;49.814;7.828;2023-05-07T11:07:57;3.35;;;3.15;;
7997;SDS011;4044;49.814;7.828;2023-05-07T11:13:15;3.30;;;3.10;;
7997;SDS011;4044;49.814;7.828;2023-05-07T11:15:47;3.10;;;2.90;;
7997;SDS011;4044;49.814;7.828;2023-05-07T11:18:16;3.53;;;3.22;;
7997;SDS011;4044;49.814;7.828;2023-05-07T11:20:46;3.30;;;3.10;;
7997;SDS011;4044;49.814;7.828;2023-05-07T11:28:35;3.10;;;2.90;;
7997;SDS011;4044;49.814;7.828;2023-05-07T11:31:03;2.78;;;2.67;;
7997;SDS011;4044;49.814;7.828;2023-05-07T11:33:29;3.65;;;3.35;;
7997;SDS011;4044;49.814;7.828;2023-05-07T11:35:56;4.15;;;3.72;;
7997;SDS011;4044;49.814;7.828;2023-05-07T11:38:22;2.97;;;2.78;;
7997;SDS011;4044;49.814;7.828;2023-05-07T11:40:57;2.92;;;2.65;;
7997;SDS011;4044;49.814;7.828;2023-05-07T11:43:27;3.63;;;3.33;;
7997;SDS011;4044;49.814;7.828;2023-05-07T11:45:52;3.28;;;3.08;;
7997;SDS011;4044;49.814;7.828;2023-05-07T11:48:18;3.80;;;3.47;;
7997;SDS011;4044;49.814;7.828;2023-05-07T11:53:27;3.17;;;2.97;;
7997;SDS011;4044;49.814;7.828;2023-05-07T11:55:59;3.17;;;2.88;;
7997;SDS011;4044;49.814;7.828;2023-05-07T11:58:25;3.50;;;3.17;;
7997;SDS011;4044;49.814;7.828;2023-05-07T12:00:51;3.50;;;3.20;;
7997;SDS011;4044;49.814;7.828;2023-05-07T12:03:18;3.47;;;3.17;;
7997;SDS011;4044;49.814;7.828;2023-05-07T12:05:44;4.57;;;3.35;;
7997;SDS011;4044;49.814;7.828;2023-05-07T12:08:20;3.10;;;2.90;;
7997;SDS011;4044;49.814;7.828;2023-05-07T12:10:47;5.05;;;3.08;;
7997;SDS011;4044;49.814;7.828;2023-05-07T12:13:18;3.00;;;2.90;;
7997;SDS011;4044;49.814;7.828;2023-05-07T12:15:44;3.17;;;2.90;;
7997;SDS011;4044;49.814;7.828;2023-05-07T12:18:13;2.97;;;2.78;;
7997;SDS011;4044;49.814;7.828;2023-05-07T12:20:39;3.17;;;2.95;;
7997;SDS011;4044;49.814;7.828;2023-05-07T12:23:05;3.20;;;3.00;;
7997;SDS011;4044;49.814;7.828;2023-05-07T12:25:35;3.20;;;3.00;;
7997;SDS011;4044;49.814;7.828;2023-05-07T12:28:04;4.10;;;3.17;;
7997;SDS011;4044;49.814;7.828;2023-05-07T12:30:31;3.20;;;3.00;;
7997;SDS011;4044;49.814;7.828;2023-05-07T12:33:01;3.00;;;2.80;;
7997;SDS011;4044;49.814;7.828;2023-05-07T12:35:27;2.83;;;2.70;;
7997;SDS011;4044;49.814;7.828;2023-05-07T12:37:57;3.00;;;2.70;;
7997;SDS011;4044;49.814;7.828;2023-05-07T12:40:24;2.53;;;2.40;;
7997;SDS011;4044;49.814;7.828;2023-05-07T12:43:02;3.05;;;2.85;;
7997;SDS011;4044;49.814;7.828;2023-05-07T12:45:28;3.60;;;3.22;;
7997;SDS011;4044;49.814;7.828;2023-05-07T12:47:53;2.60;;;2.50;;
7997;SDS011;4044;49.814;7.828;2023-05-07T12:50:19;4.00;;;2.97;;
7997;SDS011;4044;49.814;7.828;2023-05-07T12:52:47;2.65;;;2.55;;
7997;SDS011;4044;49.814;7.828;2023-05-07T12:55:16;3.08;;;2.83;;
7997;SDS011;4044;49.814;7.828;2023-05-07T12:57:42;2.70;;;2.50;;
7997;SDS011;4044;49.814;7.828;2023-05-07T13:00:13;3.65;;;2.40;;
7997;SDS011;4044;49.814;7.828;2023-05-07T13:02:39;2.33;;;2.20;;
7997;SDS011;4044;49.814;7.828;2023-05-07T13:05:06;3.80;;;2.40;;
7997;SDS011;4044;49.814;7.828;2023-05-07T13:07:32;2.65;;;2.38;;
7997;SDS011;4044;49.814;7.828;2023-05-07T13:09:58;3.13;;;2.45;;
7997;SDS011;4044;49.814;7.828;2023-05-07T13:12:23;2.70;;;2.50;;
7997;SDS011;4044;49.814;7.828;2023-05-07T13:14:49;5.82;;;2.05;;
7997;SDS011;4044;49.814;7.828;2023-05-07T13:17:14;2.25;;;2.15;;
7997;SDS011;4044;49.814;7.828;2023-05-07T13:19:40;2.10;;;2.00;;
7997;SDS011;4044;49.814;7.828;2023-05-07T13:22:06;2.67;;;2.35;;
7997;SDS011;4044;49.814;7.828;2023-05-07T13:24:31;2.30;;;2.20;;
7997;SDS011;4044;49.814;7.828;2023-05-07T13:26:56;2.70;;;2.50;;
7997;SDS011;4044;49.814;7.828;2023-05-07T13:29:22;2.55;;;2.35;;
7997;SDS011;4044;49.814;7.828;2023-05-07T13:31:55;3.05;;;2.22;;
7997;SDS011;4044;49.814;7.828;2023-05-07T13:34:21;1.92;;;1.83;;
7997;SDS011;4044;49.814;7.828;2023-05-07T13:36:47;2.58;;;1.70;;
7997;SDS011;4044;49.814;7.828;2023-05-07T13:39:12;1.63;;;1.58;;
7997;SDS011;4044;49.814;7.828;2023-05-07T13:41:38;1.80;;;1.70;;
7997;SDS011;4044;49.814;7.828;2023-05-07T13:44:03;1.90;;;1.80;;
7997;SDS011;4044;49.814;7.828;2023-05-07T13:46:29;2.00;;;1.90;;
7997;SDS011;4044;49.814;7.828;2023-05-07T13:48:55;1.85;;;1.70;;
7997;SDS011;4044;49.814;7.828;2023-05-07T13:51:21;2.00;;;1.77;;
7997;SDS011;4044;49.814;7.828;2023-05-07T13:53:47;2.53;;;1.92;;
7997;SDS011;4044;49.814;7.828;2023-05-07T13:56:12;2.25;;;1.90;;
7997;SDS011;4044;49.814;7.828;2023-05-07T13:58:39;1.85;;;1.65;;
7997;SDS011;4044;49.814;7.828;2023-05-07T14:01:05;2.00;;;1.90;;
7997;SDS011;4044;49.814;7.828;2023-05-07T14:03:30;3.75;;;1.90;;
7997;SDS011;4044;49.814;7.828;2023-05-07T14:05:57;1.83;;;1.67;;
7997;SDS011;4044;49.814;7.828;2023-05-07T14:08:24;2.03;;;1.83;;
7997;SDS011;4044;49.814;7.828;2023-05-07T14:10:50;1.90;;;1.80;;
7997;SDS011;4044;49.814;7.828;2023-05-07T14:13:16;1.50;;;1.50;;
7997;SDS011;4044;49.814;7.828;2023-05-07T14:15:42;4.25;;;2.15;;
7997;SDS011;4044;49.814;7.828;2023-05-07T14:18:11;1.80;;;1.65;;
7997;SDS011;4044;49.814;7.828;2023-05-07T14:20:37;2.33;;;2.08;;
7997;SDS011;4044;49.814;7.828;2023-05-07T14:23:02;1.98;;;1.88;;
7997;SDS011;4044;49.814;7.828;2023-05-07T14:25:28;2.58;;;1.95;;
7997;SDS011;4044;49.814;7.828;2023-05-07T14:27:53;1.98;;;1.88;;
7997;SDS011;4044;49.814;7.828;2023-05-07T14:30:19;2.00;;;1.95;;
7997;SDS011;4044;49.814;7.828;2023-05-07T14:32:45;2.13;;;2.03;;
7997;SDS011;4044;49.814;7.828;2023-05-07T14:35:10;2.20;;;2.00;;
7997;SDS011;4044;49.814;7.828;2023-05-07T14:37:36;2.08;;;1.98;;
7997;SDS011;4044;49.814;7.828;2023-05-07T14:40:01;2.42;;;2.10;;
7997;SDS011;4044;49.814;7.828;2023-05-07T14:42:27;2.22;;;2.13;;
7997;SDS011;4044;49.814;7.828;2023-05-07T14:44:52;2.97;;;2.20;;
7997;SDS011;4044;49.814;7.828;2023-05-07T14:47:18;2.05;;;1.95;;
7997;SDS011;4044;49.814;7.828;2023-05-07T14:49:43;4.63;;;2.13;;
7997;SDS011;4044;49.814;7.828;2023-05-07T14:52:09;2.15;;;2.05;;
7997;SDS011;4044;49.814;7.828;2023-05-07T14:54:35;1.77;;;1.77;;
7997;SDS011;4044;49.814;7.828;2023-05-07T14:57:01;2.30;;;2.10;;
7997;SDS011;4044;49.814;7.828;2023-05-07T14:59:27;2.20;;;2.10;;
7997;SDS011;4044;49.814;7.828;2023-05-07T15:01:53;3.55;;;2.10;;
7997;SDS011;4044;49.814;7.828;2023-05-07T15:04:19;2.10;;;2.00;;
7997;SDS011;4044;49.814;7.828;2023-05-07T15:06:45;2.17;;;2.08;;
7997;SDS011;4044;49.814;7.828;2023-05-07T15:09:11;2.10;;;2.00;;
7997;SDS011;4044;49.814;7.828;2023-05-07T15:11:37;1.90;;;1.80;;
7997;SDS011;4044;49.814;7.828;2023-05-07T15:14:02;2.92;;;2.17;;
7997;SDS011;4044;49.814;7.828;2023-05-07T15:16:28;2.05;;;1.95;;
7997;SDS011;4044;49.814;7.828;2023-05-07T15:18:53;2.33;;;2.22;;
7997;SDS011;4044;49.814;7.828;2023-05-07T15:21:19;2.28;;;2.10;;
7997;SDS011;4044;49.814;7.828;2023-05-07T15:23:45;2.17;;;2.08;;
7997;SDS011;4044;49.814;7.828;2023-05-07T15:26:10;2.90;;;2.70;;